createdAt,value
2019-04-16T00:00:11.885Z,97823.44
2019-04-16T00:05:16.900Z,97810.73
2019-04-16T00:10:24.677Z,97809.85
2019-04-16T00:15:27.961Z,97802.81
2019-04-16T00:20:36.707Z,97803.30
2019-04-16T00:25:38.211Z,97804.56
2019-04-16T00:30:41.577Z,97797.77
2019-04-16T00:35:46.629Z,97788.08
2019-04-16T00:40:49.878Z,97791.70
2019-04-16T00:45:53.165Z,97784.23
2019-04-16T00:50:56.635Z,97784.66
2019-04-16T00:55:59.932Z,97782.30
2019-04-16T01:01:03.216Z,97788.34
2019-04-16T01:06:08.115Z,97789.20
2019-04-16T01:11:11.680Z,97775.37
2019-04-16T01:16:15.316Z,97778.89
2019-04-16T01:21:18.674Z,97777.48
2019-04-16T01:26:24.260Z,97768.44
2019-04-16T01:31:28.624Z,97762.45
2019-04-16T01:36:51.451Z,97760.75
2019-04-16T01:41:54.793Z,97763.64
2019-04-16T01:46:58.105Z,97758.69
2019-04-16T01:52:01.427Z,97759.55
2019-04-16T01:57:04.713Z,97763.98
2019-04-16T02:02:08.004Z,97760.39
2019-04-16T02:07:11.793Z,97752.91
2019-04-16T02:12:15.112Z,97755.69
2019-04-16T02:17:18.417Z,97769.03
2019-04-16T02:22:21.727Z,97776.05
2019-04-16T02:27:26.301Z,97776.70
2019-04-16T02:32:30.222Z,97783.63
2019-04-16T02:37:36.404Z,97778.83
2019-04-16T02:42:38.555Z,97782.44
2019-04-16T02:47:42.538Z,97789.75
2019-04-16T02:52:51.068Z,97799.63
2019-04-16T02:57:59.576Z,97797.50
2019-04-16T03:03:17.131Z,97796.58
2019-04-16T03:08:20.504Z,97794.31
2019-04-16T03:13:24.051Z,97795.25
2019-04-16T03:18:34.519Z,97798.56
2019-04-16T03:23:37.897Z,97796.48
2019-04-16T03:28:41.169Z,97788.92
2019-04-16T03:33:50.484Z,97789.20
2019-04-16T03:38:49.516Z,97786.44
2019-04-16T03:43:52.807Z,97793.95
2019-04-16T03:48:56.457Z,97777.59
2019-04-16T03:53:59.745Z,97777.59
2019-04-16T03:59:03.038Z,97789.13
2019-04-16T04:04:06.337Z,97795.27
2019-04-16T04:09:09.649Z,97788.57
2019-04-16T04:14:13.295Z,97796.32
2019-04-16T04:19:16.680Z,97796.28
2019-04-16T04:24:19.987Z,97806.08
2019-04-16T04:29:24.710Z,97806.08
2019-04-16T04:34:28.235Z,97809.19
2019-04-16T04:39:31.521Z,97813.50
2019-04-16T04:44:36.887Z,97812.59
2019-04-16T04:49:39.834Z,97827.23
2019-04-16T04:54:43.119Z,97828.23
2019-04-16T04:59:46.417Z,97829.61
2019-04-16T05:04:54.525Z,97836.78
2019-04-16T05:09:57.832Z,97838.85
2019-04-16T05:15:03.865Z,97836.65
2019-04-16T05:20:07.661Z,97835.36
2019-04-16T05:25:11.206Z,97838.09
2019-04-16T05:30:19.927Z,97839.83
2019-04-16T05:35:19.697Z,97840.39
2019-04-16T05:40:22.977Z,97841.53
2019-04-16T05:45:26.342Z,97834.64
2019-04-16T05:50:29.950Z,97841.66
2019-04-16T05:55:34.959Z,97841.80
2019-04-16T06:00:42.805Z,97844.81
2019-04-16T06:05:46.101Z,97846.09
2019-04-16T06:10:50.904Z,97848.20
2019-04-16T06:16:13.214Z,97852.70
2019-04-16T06:21:34.246Z,97846.18
2019-04-16T06:26:47.367Z,97845.84
2019-04-16T06:32:08.418Z,97844.94
2019-04-16T06:37:20.321Z,97838.69
2019-04-16T06:42:25.942Z,97839.90
2019-04-16T06:47:33.316Z,97831.67
2019-04-16T06:52:54.417Z,97826.68
2019-04-16T06:57:59.379Z,97818.09
2019-04-16T07:03:13.585Z,97820.97
2019-04-16T07:08:37.528Z,97818.09
2019-04-16T07:13:32.598Z,97817.38
2019-04-16T07:18:38.732Z,97820.08
2019-04-16T07:23:40.927Z,97812.39
2019-04-16T07:29:02.082Z,97814.73
2019-04-16T07:34:13.010Z,97807.11
2019-04-16T07:39:36.947Z,97802.80
2019-04-16T07:44:57.165Z,97806.95
2019-04-16T07:50:02.474Z,97809.88
2019-04-16T07:55:23.668Z,97811.14
2019-04-16T08:00:27.995Z,97800.42
2019-04-16T08:05:31.294Z,97803.09
2019-04-16T08:10:34.734Z,97802.47
2019-04-16T08:15:38.026Z,97798.13
2019-04-16T08:20:41.324Z,97797.45
2019-04-16T08:25:44.930Z,97799.23
2019-04-16T08:30:48.264Z,97787.16
2019-04-16T08:35:51.613Z,97796.06
2019-04-16T08:40:54.920Z,97787.43
2019-04-16T08:45:58.232Z,97786.22
2019-04-16T08:51:04.276Z,97783.50
2019-04-16T08:56:06.547Z,97775.78
2019-04-16T09:01:11.518Z,97778.06
2019-04-16T09:06:14.802Z,97776.46
2019-04-16T09:11:23.423Z,97775.02
2019-04-16T09:16:23.148Z,97768.27
2019-04-16T09:21:28.051Z,97762.94
2019-04-16T09:26:33.177Z,97767.95
2019-04-16T09:31:38.225Z,97770.84
2019-04-16T09:36:55.489Z,97763.91
2019-04-16T09:41:58.749Z,97761.05
2019-04-16T09:47:05.004Z,97768.23
2019-04-16T09:52:07.087Z,97765.02
2019-04-16T09:57:10.406Z,97760.73
2019-04-16T10:02:18.061Z,97763.08
2019-04-16T10:07:21.490Z,97762.45
2019-04-16T10:12:25.076Z,97753.94
2019-04-16T10:17:28.329Z,97750.92
2019-04-16T10:22:31.644Z,97750.80
2019-04-16T10:27:36.617Z,97740.30
2019-04-16T10:32:39.898Z,97734.80
2019-04-16T10:37:43.208Z,97724.45
2019-04-16T10:42:50.841Z,97727.80
2019-04-16T10:47:55.738Z,97735.81
2019-04-16T10:53:06.315Z,97731.30
2019-04-16T10:58:27.529Z,97721.08
2019-04-16T11:03:48.602Z,97716.44
2019-04-16T11:08:52.028Z,97698.25
2019-04-16T11:14:00.184Z,97695.95
2019-04-16T11:19:00.494Z,97700.02
2019-04-16T11:24:03.871Z,97703.69
2019-04-16T11:29:07.165Z,97695.66
2019-04-16T11:34:12.102Z,97696.79
2019-04-16T11:39:15.448Z,97694.86
2019-04-16T11:44:18.774Z,97693.84
2019-04-16T11:49:22.062Z,97683.75
2019-04-16T11:54:25.474Z,97685.84
2019-04-16T11:59:28.842Z,97679.20
2019-04-16T12:04:33.808Z,97677.89
2019-04-16T12:09:38.784Z,97675.80
2019-04-16T12:14:43.808Z,97666.03
2019-04-16T12:19:48.849Z,97662.94
2019-04-16T12:25:00.029Z,97672.05
2019-04-16T12:30:13.721Z,97673.88
2019-04-16T12:35:36.842Z,97669.91
2019-04-16T12:40:58.259Z,97661.28
2019-04-16T12:46:05.957Z,97657.88
2019-04-16T12:51:10.894Z,97659.41
2019-04-16T12:56:18.514Z,97657.75
2019-04-16T13:01:29.406Z,97652.65
2019-04-16T13:06:37.111Z,97655.32
2019-04-16T13:11:47.746Z,97663.23
2019-04-16T13:17:08.809Z,97658.26
2019-04-16T13:22:19.651Z,97653.02
2019-04-16T13:27:30.616Z,97641.72
2019-04-16T13:32:33.931Z,97641.64
2019-04-16T13:37:38.027Z,97639.08
2019-04-16T13:42:41.409Z,97639.77
2019-04-16T13:47:54.547Z,97643.06
2019-04-16T13:52:55.969Z,97628.73
2019-04-16T13:58:03.519Z,97629.75
2019-04-16T14:03:11.173Z,97628.97
2019-04-16T14:08:14.476Z,97627.28
2019-04-16T14:13:17.770Z,97621.50
2019-04-16T14:18:21.903Z,97618.20
2019-04-16T14:23:25.356Z,97627.58
2019-04-16T14:28:31.597Z,97625.43
2019-04-16T14:33:35.446Z,97624.91
2019-04-16T14:38:43.276Z,97629.16
2019-04-16T14:43:48.227Z,97628.13
2019-04-16T14:48:51.532Z,97629.52
2019-04-16T14:54:12.306Z,97626.80
2019-04-16T14:59:33.605Z,97630.08
2019-04-16T15:04:30.237Z,97628.25
2019-04-16T15:09:43.954Z,97628.03
2019-04-16T15:14:48.887Z,97632.05
2019-04-16T15:19:53.834Z,97628.00
2019-04-16T15:25:10.801Z,97625.88
2019-04-16T15:30:18.343Z,97623.83
2019-04-16T15:35:29.294Z,97636.13
2019-04-16T15:40:39.388Z,97636.89
2019-04-16T15:45:40.959Z,97634.73
2019-04-16T15:50:54.929Z,97636.77
2019-04-16T15:55:59.914Z,97627.66
2019-04-16T16:01:07.967Z,97639.30
2019-04-16T16:06:12.941Z,97643.73
2019-04-16T16:11:20.311Z,97649.72
2019-04-16T16:16:23.616Z,97652.20
2019-04-16T16:21:26.917Z,97659.14
2019-04-16T16:26:30.225Z,97661.33
2019-04-16T16:31:35.680Z,97667.83
2019-04-16T16:36:40.700Z,97667.78
2019-04-16T16:41:46.477Z,97672.13
2019-04-16T16:46:57.998Z,97678.54
2019-04-16T16:52:21.429Z,97677.34
2019-04-16T16:57:35.326Z,97678.58
2019-04-16T17:02:40.266Z,97686.01
2019-04-16T17:07:43.566Z,97691.67
2019-04-16T17:12:46.871Z,97697.98
2019-04-16T17:17:50.193Z,97706.66
2019-04-16T17:22:53.779Z,97706.20
2019-04-16T17:27:57.073Z,97705.82
2019-04-16T17:33:00.445Z,97719.07
2019-04-16T17:38:04.418Z,97722.11
2019-04-16T17:43:18.143Z,97724.76
2019-04-16T17:48:41.485Z,97737.09
2019-04-16T17:53:46.431Z,97737.73
2019-04-16T17:58:53.849Z,97747.02
2019-04-16T18:04:02.151Z,97758.74
2019-04-16T18:09:18.059Z,97754.88
2019-04-16T18:14:41.390Z,97763.45
2019-04-16T18:20:02.553Z,97770.33
2019-04-16T18:25:23.875Z,97775.74
2019-04-16T18:30:31.800Z,97783.87
2019-04-16T18:35:52.781Z,97779.48
2019-04-16T18:41:09.610Z,97781.78
2019-04-16T18:46:23.300Z,97789.84
2019-04-16T18:51:26.742Z,97799.20
2019-04-16T18:56:30.256Z,97805.64
2019-04-16T19:01:35.226Z,97817.48
2019-04-16T19:06:38.559Z,97825.38
2019-04-16T19:11:41.860Z,97831.19
2019-04-16T19:16:45.254Z,97832.87
2019-04-16T19:21:52.252Z,97839.04
2019-04-16T19:26:54.480Z,97844.97
2019-04-16T19:31:57.784Z,97844.40
2019-04-16T19:37:01.384Z,97858.13
2019-04-16T19:42:04.887Z,97863.03
2019-04-16T19:47:08.201Z,97860.93
2019-04-16T19:52:14.289Z,97868.47
2019-04-16T19:57:16.569Z,97873.61
2019-04-16T20:02:19.880Z,97876.76
2019-04-16T20:07:23.185Z,97878.88
2019-04-16T20:12:28.050Z,97883.58
2019-04-16T20:17:31.595Z,97886.42
2019-04-16T20:22:34.927Z,97893.76
2019-04-16T20:27:39.795Z,97902.16
2019-04-16T20:32:43.336Z,97900.14
2019-04-16T20:37:55.155Z,97908.75
2019-04-16T20:42:58.994Z,97913.98
2019-04-16T20:48:02.346Z,97916.77
2019-04-16T20:53:11.278Z,97919.52
2019-04-16T20:58:15.011Z,97929.70
2019-04-16T21:03:22.275Z,97922.78
2019-04-16T21:08:25.048Z,97925.00
2019-04-16T21:13:28.588Z,97930.37
2019-04-16T21:18:32.947Z,97932.95
2019-04-16T21:23:36.246Z,97941.92
2019-04-16T21:28:41.183Z,97940.67
2019-04-16T21:33:55.035Z,97945.13
2019-04-16T21:39:08.968Z,97947.16
2019-04-16T21:44:13.301Z,97953.48
2019-04-16T21:49:16.865Z,97951.00
2019-04-16T21:54:20.213Z,97948.13
2019-04-16T21:59:23.544Z,97952.17
2019-04-16T22:04:26.907Z,97955.81
2019-04-16T22:09:30.199Z,97965.13
2019-04-16T22:14:33.506Z,97965.69
2019-04-16T22:19:36.837Z,97969.80
2019-04-16T22:24:40.183Z,97972.83
2019-04-16T22:29:47.317Z,97972.97
2019-04-16T22:34:48.492Z,97977.25
2019-04-16T22:39:59.173Z,97978.65
2019-04-16T22:45:20.630Z,97987.30
2019-04-16T22:50:23.940Z,97991.72
2019-04-16T22:55:27.245Z,97985.36
2019-04-16T23:00:32.168Z,97988.78
2019-04-16T23:05:35.459Z,97990.67
2019-04-16T23:10:38.818Z,97995.30
2019-04-16T23:15:42.786Z,97996.00
2019-04-16T23:20:46.078Z,97990.05
2019-04-16T23:25:49.419Z,97995.42
2019-04-16T23:30:52.699Z,98002.14
2019-04-16T23:35:55.994Z,98003.05
2019-04-16T23:40:59.281Z,98010.17
2019-04-16T23:46:20.064Z,98012.98
2019-04-16T23:51:28.685Z,98016.06
2019-04-16T23:56:40.731Z,98014.46
